Time;durP1;ratioP1;P1;durP2;ratioP2;P2;SDS_P1;SDS_P2;PMS_P1;PMS_P2;Temp;Humidity;BMP_temperature;BMP_pressure;BME280_temperature;BME280_humidity;BME280_pressure;Samples;Min_cycle;Max_cycle;Signal;HPM_P1;HPM_P2
2022/11/11 00:02:22;;;;;;;;;;;;;;;25.34;45.93;95487.75;4936604;28;7139;-61
2022/11/11 00:04:56;;;;;;;;;;;;;;;25.30;46.66;95490.72;4944552;28;7348;-62
2022/11/11 00:07:25;;;;;;;;;;;;;;;25.28;46.30;95490.47;4938987;28;7191;-62
2022/11/11 00:09:53;;;;;;;;;;;;;;;25.30;46.08;95495.47;4945030;28;7043;-61
2022/11/11 00:12:28;;;;;;;;;;;;;;;25.30;46.10;95495.47;4945511;28;7479;-61
2022/11/11 00:14:56;;;;;;;;;;;;;;;25.32;46.67;95485.50;4927324;28;7054;-62
2022/11/11 00:26:30;;;;;;;;;;;;;;;25.24;46.07;95492.66;5008838;28;7034;-62
2022/11/11 00:29:05;;;;;;;;;;;;;;;25.27;45.65;95493.69;4995287;28;7366;-62
2022/11/11 00:31:31;;;;;;;;;;;;;;;25.24;46.17;95491.91;4993159;28;7159;-61
2022/11/11 00:34:00;;;;;;;;;;;;;;;25.28;46.64;95503.47;4998887;28;7205;-62
2022/11/11 00:36:26;;;;;;;;;;;;;;;25.26;46.57;95500.44;4984220;28;7272;-61
2022/11/11 00:38:58;;;;;;;;;;;;;;;25.28;46.82;95497.97;5002689;28;7301;-61
2022/11/11 00:41:26;;;;;;;;;;;;;;;25.26;46.60;95511.44;5007038;28;7391;-61
2022/11/11 00:43:52;;;;;;;;;;;;;;;25.24;46.43;95513.94;4989882;28;8455;-62
2022/11/11 00:52:21;;;;;;;;;;;;;;;25.18;46.62;95519.38;5004198;28;7321;-62
2022/11/11 00:54:56;;;;;;;;;;;;;;;25.17;46.25;95509.59;5007340;28;7152;-62
2022/11/11 00:57:23;;;;;;;;;;;;;;;25.20;46.63;95513.38;5010635;28;9676;-62
2022/11/11 00:59:52;;;;;;;;;;;;;;;25.22;46.69;95510.91;5039500;28;9066;-62
2022/11/11 01:02:18;;;;;;;;;;;;;;;25.19;46.57;95509.88;5011228;28;7226;-62
2022/11/11 01:05:03;;;;;;;;;;;;;;;25.19;46.17;95500.84;5019244;28;8952;-62
2022/11/11 01:07:30;;;;;;;;;;;;;;;25.19;46.93;95495.34;5035727;28;7130;-60
2022/11/11 01:10:37;;;;;;;;;;;;;;;25.20;46.79;95500.38;5001082;28;7036;-61
2022/11/11 01:13:29;;;;;;;;;;;;;;;25.18;46.17;95504.84;5026009;28;7248;-62
2022/11/11 01:16:41;;;;;;;;;;;;;;;25.18;47.17;95504.84;5009995;28;7038;-61
2022/11/11 01:19:15;;;;;;;;;;;;;;;25.16;46.73;95508.09;4932277;28;7158;-62
2022/11/11 01:21:51;;;;;;;;;;;;;;;25.17;46.96;95503.31;4934029;29;7169;-62
2022/11/11 01:24:39;;;;;;;;;;;;;;;25.20;46.85;95505.88;4946097;28;7285;-62
2022/11/11 01:27:37;;;;;;;;;;;;;;;25.19;46.62;95512.63;4929913;28;6957;-62
2022/11/11 01:30:22;;;;;;;;;;;;;;;25.14;46.88;95516.03;4916137;29;7021;-62
2022/11/11 01:32:48;;;;;;;;;;;;;;;25.15;46.63;95505.78;4927892;29;7602;-62
2022/11/11 01:35:13;;;;;;;;;;;;;;;25.13;46.65;95509.03;4914903;29;6997;-62
2022/11/11 01:37:42;;;;;;;;;;;;;;;25.11;46.28;95502.50;4911657;29;7438;-62
2022/11/11 01:40:12;;;;;;;;;;;;;;;25.11;47.04;95499.75;4912606;29;9155;-61
2022/11/11 01:43:11;;;;;;;;;;;;;;;25.14;46.60;95494.03;4914866;29;8978;-62
2022/11/11 01:46:02;;;;;;;;;;;;;;;25.13;46.86;95511.78;4919599;29;9106;-61
2022/11/11 01:51:46;;;;;;;;;;;;;;;25.12;46.32;95515.78;4911581;29;7123;-61
2022/11/11 01:54:27;;;;;;;;;;;;;;;25.10;46.61;95514.75;4898711;29;7255;-62
2022/11/11 01:57:03;;;;;;;;;;;;;;;25.13;47.04;95516.53;4957925;28;7056;-61
2022/11/11 01:59:59;;;;;;;;;;;;;;;25.13;46.60;95522.81;4987511;28;7021;-61
2022/11/11 02:02:43;;;;;;;;;;;;;;;25.11;46.57;95519.00;4981052;28;7226;-62
2022/11/11 02:08:47;;;;;;;;;;;;;;;25.10;46.93;95523.03;5023652;28;7382;-62
2022/11/11 02:17:10;;;;;;;;;;;;;;;25.08;46.62;95517.97;4927647;29;9337;-61
2022/11/11 02:19:55;;;;;;;;;;;;;;;25.10;46.46;95520.28;4929313;29;7459;-61
2022/11/11 02:23:08;;;;;;;;;;;;;;;25.07;47.12;95529.47;4899065;29;9600;-62
2022/11/11 02:25:54;;;;;;;;;;;;;;;25.09;46.62;95536.03;4868120;29;8722;-61
2022/11/11 02:28:27;;;;;;;;;;;;;;;25.09;46.89;95530.50;4892279;29;7035;-62
2022/11/11 02:30:55;;;;;;;;;;;;;;;25.05;46.70;95537.47;4894508;29;7111;-62
2022/11/11 02:33:23;;;;;;;;;;;;;;;25.05;47.00;95532.72;4889884;29;7493;-61
2022/11/11 02:35:57;;;;;;;;;;;;;;;25.06;46.87;95536.22;4867291;29;7347;-61
2022/11/11 02:38:25;;;;;;;;;;;;;;;25.05;46.47;95545.72;4876968;29;10818;-61
2022/11/11 02:43:58;;;;;;;;;;;;;;;25.02;47.31;95546.66;4890334;29;7178;-62
2022/11/11 02:46:25;;;;;;;;;;;;;;;25.04;47.04;95561.47;4878199;29;7048;-62
2022/11/11 02:48:52;;;;;;;;;;;;;;;25.06;47.24;95567.25;4950493;28;7172;-62
2022/11/11 02:51:23;;;;;;;;;;;;;;;25.04;46.50;95577.22;4934213;29;7221;-62
2022/11/11 02:54:01;;;;;;;;;;;;;;;25.04;47.00;95574.47;4945288;28;7114;-62
2022/11/11 02:59:22;;;;;;;;;;;;;;;25.03;47.38;95582.00;4959125;28;7030;-61
2022/11/11 03:01:48;;;;;;;;;;;;;;;25.03;46.60;95589.47;4958320;28;7232;-61
2022/11/11 03:04:26;;;;;;;;;;;;;;;25.03;47.13;95593.00;5009807;28;7126;-61
2022/11/11 03:07:12;;;;;;;;;;;;;;;25.00;46.67;95585.69;5007487;28;7126;-61
2022/11/11 03:09:42;;;;;;;;;;;;;;;25.02;46.94;95587.94;5011158;28;9234;-62
2022/11/11 03:12:08;;;;;;;;;;;;;;;25.02;46.59;95599.72;5025630;28;7292;-62
2022/11/11 03:14:34;;;;;;;;;;;;;;;25.02;47.16;95602.47;5015415;28;8005;-62
2022/11/11 03:19:44;;;;;;;;;;;;;;;25.02;47.07;95596.97;5018113;28;7163;-63
2022/11/11 03:22:18;;;;;;;;;;;;;;;25.00;47.27;95606.94;5035050;28;7839;-62
2022/11/11 03:27:45;;;;;;;;;;;;;;;25.01;46.53;95608.47;5016980;28;7176;-62
2022/11/11 03:30:12;;;;;;;;;;;;;;;25.01;47.32;95613.97;5015802;28;7247;-61
2022/11/11 03:32:38;;;;;;;;;;;;;;;25.03;47.24;95628.03;5042414;28;7264;-63
2022/11/11 03:35:04;;;;;;;;;;;;;;;25.01;46.70;95616.72;5007834;28;8518;-62
2022/11/11 03:40:14;;;;;;;;;;;;;;;25.01;47.14;95630.50;5024702;28;7584;-61
2022/11/11 03:42:50;;;;;;;;;;;;;;;25.01;47.22;95628.47;5015217;28;7062;-62
2022/11/11 03:45:18;;;;;;;;;;;;;;;25.00;47.45;95628.97;5021628;28;8410;-62
2022/11/11 03:47:45;;;;;;;;;;;;;;;24.99;46.51;95624.69;5015448;28;7352;-63
2022/11/11 03:50:12;;;;;;;;;;;;;;;24.98;47.22;95620.41;5005167;28;7032;-63
2022/11/11 03:52:51;;;;;;;;;;;;;;;24.99;46.83;95625.44;5011380;28;7035;-63
2022/11/11 03:55:25;;;;;;;;;;;;;;;25.02;46.62;95626.50;5012601;28;9454;-63
2022/11/11 03:57:53;;;;;;;;;;;;;;;25.02;46.49;95635.50;5002522;28;8705;-62
2022/11/11 04:00:29;;;;;;;;;;;;;;;25.04;47.05;95629.53;4999559;28;7025;-60
2022/11/11 04:11:47;;;;;;;;;;;;;;;25.01;47.18;95636.00;5024293;28;9434;-60
2022/11/11 04:17:55;;;;;;;;;;;;;;;25.02;46.98;95626.50;4944294;28;7308;-60
2022/11/11 04:23:06;;;;;;;;;;;;;;;25.00;46.80;95637.22;4953888;28;7037;-59
2022/11/11 04:25:47;;;;;;;;;;;;;;;24.99;46.96;95643.97;4967550;28;7303;-60
2022/11/11 04:31:21;;;;;;;;;;;;;;;25.00;47.26;95649.00;4953487;28;8413;-60
2022/11/11 04:33:47;;;;;;;;;;;;;;;24.99;47.31;95641.97;4950446;28;7511;-60
2022/11/11 04:36:13;;;;;;;;;;;;;;;24.97;46.95;95646.44;4936887;28;9317;-59
2022/11/11 04:41:28;;;;;;;;;;;;;;;24.97;46.77;95640.94;4951932;28;9269;-60
2022/11/11 04:46:46;;;;;;;;;;;;;;;24.99;47.15;95643.97;4953469;28;7117;-59
2022/11/11 04:49:14;;;;;;;;;;;;;;;24.96;46.89;95642.16;4938245;28;7229;-59
2022/11/11 04:57:57;;;;;;;;;;;;;;;24.98;47.16;95651.47;5027895;28;7026;-61
2022/11/11 05:00:23;;;;;;;;;;;;;;;24.96;46.73;95650.41;5013004;28;7045;-60
2022/11/11 05:11:15;;;;;;;;;;;;;;;24.99;46.68;95652.22;5021004;28;7336;-60
2022/11/11 05:22:45;;;;;;;;;;;;;;;24.98;46.58;95637.69;5029808;28;9446;-60
2022/11/11 05:25:30;;;;;;;;;;;;;;;24.98;47.13;95636.94;5020641;28;9589;-60
2022/11/11 05:27:58;;;;;;;;;;;;;;;24.98;46.38;95634.19;5013271;28;7280;-59
2022/11/11 05:30:40;;;;;;;;;;;;;;;25.00;46.87;95631.72;5027189;28;7393;-59
2022/11/11 05:33:08;;;;;;;;;;;;;;;24.99;47.02;95628.19;5010455;28;8974;-60
2022/11/11 05:35:36;;;;;;;;;;;;;;;24.99;46.76;95633.69;5024152;28;7416;-60
2022/11/11 05:38:20;;;;;;;;;;;;;;;24.99;46.57;95632.97;5003689;28;7340;-60
2022/11/11 05:40:46;;;;;;;;;;;;;;;25.00;47.18;95631.72;5022999;28;7230;-60
2022/11/11 05:43:33;;;;;;;;;;;;;;;25.01;46.74;95638.75;5006417;28;7179;-59
2022/11/11 05:46:17;;;;;;;;;;;;;;;24.96;47.42;95640.19;5007047;28;7313;-60
2022/11/11 05:51:49;;;;;;;;;;;;;;;24.97;46.82;95627.19;5019003;28;6867;-60
2022/11/11 05:54:21;;;;;;;;;;;;;;;24.98;46.69;95631.44;5038792;28;8156;-59
2022/11/11 05:56:47;;;;;;;;;;;;;;;24.98;46.95;95634.19;5015622;28;7921;-59
2022/11/11 05:59:13;;;;;;;;;;;;;;;25.00;47.52;95640.72;5031507;28;7005;-59
2022/11/11 06:01:46;;;;;;;;;;;;;;;25.01;46.38;95638.75;5020302;28;7095;-60
2022/11/11 06:04:21;;;;;;;;;;;;;;;25.03;47.10;95644.53;5030034;28;7369;-58
2022/11/11 06:06:57;;;;;;;;;;;;;;;25.02;46.81;95637.50;5011241;28;6948;-58
2022/11/11 06:10:31;;;;;;;;;;;;;;;25.05;46.31;95639.31;5030512;28;7080;-59
2022/11/11 06:13:09;;;;;;;;;;;;;;;25.06;46.56;95638.81;4943307;28;7293;-59
2022/11/11 06:15:44;;;;;;;;;;;;;;;25.06;46.91;95640.81;4936884;28;7049;-59
2022/11/11 06:18:19;;;;;;;;;;;;;;;25.08;46.37;95650.13;4935275;28;9441;-60
2022/11/11 06:20:52;;;;;;;;;;;;;;;25.06;46.96;95640.81;4928165;28;8355;-60
2022/11/11 06:23:20;;;;;;;;;;;;;;;25.05;46.42;95656.59;4945076;28;7133;-60
2022/11/11 06:28:52;;;;;;;;;;;;;;;25.03;46.59;95670.06;4948919;28;7037;-59
2022/11/11 06:31:35;;;;;;;;;;;;;;;25.03;46.80;95685.81;4942730;28;7284;-60
2022/11/11 06:34:01;;;;;;;;;;;;;;;25.01;46.40;95685.53;4959609;28;8346;-58
2022/11/11 06:36:26;;;;;;;;;;;;;;;25.02;47.25;95700.81;4946454;29;7482;-60
2022/11/11 06:38:52;;;;;;;;;;;;;;;25.01;47.13;95713.81;4950726;28;9044;-59
2022/11/11 06:41:28;;;;;;;;;;;;;;;25.04;47.22;95728.63;4950066;29;7265;-59
2022/11/11 06:44:06;;;;;;;;;;;;;;;25.02;46.34;95733.84;4950989;28;7077;-60
2022/11/11 06:46:35;;;;;;;;;;;;;;;25.04;46.37;95731.38;4937445;28;9860;-59
2022/11/11 06:49:10;;;;;;;;;;;;;;;25.04;46.09;95732.13;4985669;28;7038;-59
2022/11/11 06:51:46;;;;;;;;;;;;;;;25.05;45.84;95735.66;5023087;28;7271;-61
2022/11/11 06:54:19;;;;;;;;;;;;;;;25.07;45.55;95741.44;5045389;28;7122;-60
2022/11/11 06:56:47;;;;;;;;;;;;;;;25.03;46.13;95738.88;5017982;28;7150;-60
2022/11/11 06:59:21;;;;;;;;;;;;;;;25.04;46.75;95742.38;5009221;28;7056;-61
2022/11/11 07:01:49;;;;;;;;;;;;;;;25.02;46.66;95742.09;5036849;28;7133;-61
2022/11/11 07:04:19;;;;;;;;;;;;;;;25.00;46.82;95750.06;5014838;28;7020;-60
2022/11/11 07:06:49;;;;;;;;;;;;;;;25.03;46.36;95755.41;5001781;28;7262;-60
2022/11/11 07:09:24;;;;;;;;;;;;;;;25.05;46.17;95754.94;5017575;28;7524;-60
2022/11/11 07:11:51;;;;;;;;;;;;;;;25.04;46.41;95764.41;5043907;28;7562;-59
2022/11/11 07:14:22;;;;;;;;;;;;;;;25.03;46.62;95749.13;5003021;28;7208;-60
2022/11/11 07:16:50;;;;;;;;;;;;;;;25.00;46.68;95745.34;5040001;28;7324;-60
2022/11/11 07:19:16;;;;;;;;;;;;;;;25.03;46.77;95751.88;4999236;28;7039;-59
2022/11/11 07:21:49;;;;;;;;;;;;;;;25.03;46.82;95757.38;5044635;28;7249;-58
2022/11/11 07:24:33;;;;;;;;;;;;;;;25.00;47.39;95763.84;5043129;28;8505;-58
2022/11/11 07:27:20;;;;;;;;;;;;;;;24.99;46.52;95767.84;5033490;28;9107;-59
2022/11/11 07:29:55;;;;;;;;;;;;;;;24.98;46.58;95775.31;5019440;28;7497;-60
2022/11/11 07:32:26;;;;;;;;;;;;;;;24.95;47.29;95776.25;5018769;28;7122;-60
2022/11/11 07:34:51;;;;;;;;;;;;;;;24.96;47.17;95780.56;5043261;28;7350;-59
2022/11/11 07:37:20;;;;;;;;;;;;;;;24.94;46.65;95779.50;5016429;28;7959;-59
2022/11/11 07:39:45;;;;;;;;;;;;;;;24.96;47.04;95779.78;5033706;28;7131;-60
2022/11/11 07:42:12;;;;;;;;;;;;;;;24.98;47.12;95799.34;5009383;28;7087;-59
2022/11/11 07:44:47;;;;;;;;;;;;;;;24.92;46.54;95790.22;5039991;28;7327;-60
2022/11/11 07:47:13;;;;;;;;;;;;;;;24.99;46.99;95809.13;5024758;28;9210;-60
2022/11/11 07:49:45;;;;;;;;;;;;;;;24.97;46.37;95797.81;5008166;28;7307;-60
2022/11/11 07:52:13;;;;;;;;;;;;;;;25.00;46.46;95791.34;5013976;28;9429;-61
2022/11/11 07:54:47;;;;;;;;;;;;;;;24.99;46.47;95795.38;5018084;28;8599;-60
2022/11/11 07:57:13;;;;;;;;;;;;;;;24.98;47.15;95811.09;5034244;28;7126;-59
2022/11/11 07:59:40;;;;;;;;;;;;;;;24.99;46.24;95817.38;5029166;28;8285;-59
2022/11/11 08:02:14;;;;;;;;;;;;;;;24.99;46.91;95817.38;5033236;28;7495;-60
2022/11/11 08:04:45;;;;;;;;;;;;;;;25.00;46.30;95822.41;5033520;28;7765;-59
2022/11/11 08:07:12;;;;;;;;;;;;;;;25.01;46.52;95820.41;5040662;28;7287;-59
2022/11/11 08:09:42;;;;;;;;;;;;;;;24.99;46.98;95817.38;5031152;28;7257;-59
2022/11/11 08:14:56;;;;;;;;;;;;;;;25.00;45.97;95818.88;5024065;28;7303;-59
2022/11/11 08:17:27;;;;;;;;;;;;;;;25.00;46.75;95818.88;5042022;28;7038;-60
2022/11/11 08:20:12;;;;;;;;;;;;;;;25.03;46.38;95820.72;5020746;28;10015;-59
2022/11/11 08:22:40;;;;;;;;;;;;;;;25.02;47.07;95811.69;5010513;28;7050;-59
2022/11/11 08:25:14;;;;;;;;;;;;;;;25.05;46.67;95810.75;5009792;28;7017;-59
2022/11/11 08:27:43;;;;;;;;;;;;;;;25.03;46.77;95807.72;5014173;28;8525;-58
2022/11/11 08:30:11;;;;;;;;;;;;;;;25.04;46.54;95809.22;5003249;28;7432;-59
2022/11/11 08:32:37;;;;;;;;;;;;;;;25.04;46.27;95802.94;5019086;28;7014;-58
2022/11/11 08:35:03;;;;;;;;;;;;;;;25.02;46.46;95794.41;5035650;28;8258;-59
2022/11/11 08:37:29;;;;;;;;;;;;;;;25.01;46.82;95801.16;5003394;28;8146;-59
2022/11/11 08:39:57;;;;;;;;;;;;;;;25.01;46.62;95790.13;5009861;28;7031;-58
2022/11/11 08:42:26;;;;;;;;;;;;;;;25.01;46.65;95801.16;4995896;28;10735;-59
2022/11/11 08:44:55;;;;;;;;;;;;;;;25.04;46.73;95802.94;5007687;28;7392;-60
2022/11/11 08:47:23;;;;;;;;;;;;;;;25.07;46.85;95797.25;5013213;28;6920;-59
2022/11/11 08:49:56;;;;;;;;;;;;;;;25.10;46.60;95798.31;5009067;28;7418;-59
2022/11/11 08:52:28;;;;;;;;;;;;;;;25.13;47.06;95794.59;5029682;28;7442;-59
2022/11/11 08:54:59;;;;;;;;;;;;;;;25.13;45.85;95791.84;5014230;28;7568;-59
2022/11/11 08:57:37;;;;;;;;;;;;;;;25.10;46.03;95795.56;5028725;28;8812;-59
2022/11/11 09:00:06;;;;;;;;;;;;;;;25.08;46.85;95796.00;5026515;28;7308;-59
2022/11/11 09:02:42;;;;;;;;;;;;;;;25.07;46.48;95800.03;5007923;28;7288;-59
2022/11/11 09:05:37;;;;;;;;;;;;;;;25.08;46.75;95795.25;5037075;28;8383;-59
2022/11/11 09:08:06;;;;;;;;;;;;;;;25.06;46.45;95794.97;5029252;28;9284;-59
2022/11/11 09:10:45;;;;;;;;;;;;;;;25.06;46.54;95797.72;5016508;28;7033;-61
2022/11/11 09:13:25;;;;;;;;;;;;;;;25.06;46.48;95795.72;5025666;28;7415;-62
2022/11/11 09:15:58;;;;;;;;;;;;;;;25.04;47.01;95798.19;5006088;28;7125;-61
2022/11/11 09:18:26;;;;;;;;;;;;;;;25.04;46.60;95792.69;5017841;28;7796;-61
2022/11/11 09:20:59;;;;;;;;;;;;;;;25.04;47.17;95802.94;5020653;28;7562;-62
2022/11/11 09:23:29;;;;;;;;;;;;;;;25.04;46.81;95794.69;5031156;28;7651;-61
2022/11/11 09:26:33;;;;;;;;;;;;;;;25.05;47.06;95796.97;5034163;28;7063;-61
2022/11/11 09:28:59;;;;;;;;;;;;;;;25.06;47.10;95798.50;4931570;29;7302;-62
2022/11/11 09:31:25;;;;;;;;;;;;;;;25.08;47.02;95798.78;4929886;28;7023;-62
2022/11/11 09:33:53;;;;;;;;;;;;;;;25.08;46.52;95795.25;4911171;29;7000;-61
2022/11/11 09:36:20;;;;;;;;;;;;;;;25.08;46.80;95798.78;4915333;29;7384;-60
2022/11/11 09:38:46;;;;;;;;;;;;;;;25.09;46.77;95791.28;4934118;28;7116;-61
2022/11/11 09:41:50;;;;;;;;;;;;;;;25.07;46.70;95791.00;4937500;28;7269;-60
2022/11/11 09:44:31;;;;;;;;;;;;;;;25.07;47.45;95791.75;4849608;29;7030;-62
2022/11/11 09:47:35;;;;;;;;;;;;;;;25.08;47.01;95800.75;4871476;29;7058;-61
2022/11/11 09:50:22;;;;;;;;;;;;;;;25.09;47.33;95791.28;4836135;29;7293;-61
2022/11/11 09:53:07;;;;;;;;;;;;;;;25.07;47.87;95786.25;4841420;29;7276;-61
2022/11/11 09:56:08;;;;;;;;;;;;;;;25.10;48.34;95796.31;4853989;29;7522;-61
2022/11/11 09:59:04;;;;;;;;;;;;;;;25.12;47.57;95796.59;4839726;29;7058;-61
2022/11/11 10:01:52;;;;;;;;;;;;;;;25.13;47.48;95794.59;4820220;29;7260;-62
2022/11/11 10:04:56;;;;;;;;;;;;;;;25.13;47.74;95789.09;4891822;29;7228;-61
2022/11/11 10:07:54;;;;;;;;;;;;;;;25.13;47.76;95784.34;4895169;29;7043;-61
2022/11/11 10:10:42;;;;;;;;;;;;;;;25.15;48.09;95781.13;4913381;29;7336;-61
2022/11/11 10:13:31;;;;;;;;;;;;;;;25.16;47.31;95777.16;4887768;29;7498;-62
2022/11/11 10:16:01;;;;;;;;;;;;;;;25.19;47.18;95776.19;4909696;29;7622;-60
2022/11/11 10:18:41;;;;;;;;;;;;;;;25.19;48.01;95768.69;4897347;29;9072;-61
2022/11/11 10:21:25;;;;;;;;;;;;;;;25.20;47.45;95772.19;4886493;29;10038;-61
2022/11/11 10:24:03;;;;;;;;;;;;;;;25.21;47.20;95770.94;4883692;29;7213;-62
2022/11/11 10:26:46;;;;;;;;;;;;;;;25.18;47.41;95764.41;4896530;29;7296;-63
2022/11/11 10:29:21;;;;;;;;;;;;;;;25.19;47.28;95760.41;4908124;29;7039;-62
2022/11/11 10:32:19;;;;;;;;;;;;;;;25.19;47.22;95749.41;4909361;29;7063;-62
2022/11/11 10:34:45;;;;;;;;;;;;;;;25.19;47.38;95746.66;4846702;29;8858;-62
2022/11/11 10:37:20;;;;;;;;;;;;;;;25.22;47.40;95756.72;4848461;29;9394;-62
2022/11/11 10:39:54;;;;;;;;;;;;;;;25.23;46.54;95749.19;4893563;29;6964;-61
2022/11/11 10:42:51;;;;;;;;;;;;;;;25.23;47.27;95741.72;4905610;29;8374;-61
2022/11/11 10:45:39;;;;;;;;;;;;;;;25.24;46.97;95747.97;4864246;29;9201;-61
2022/11/11 10:48:14;;;;;;;;;;;;;;;25.22;47.46;95737.44;4882131;29;7138;-62
2022/11/11 10:51:00;;;;;;;;;;;;;;;25.22;47.47;95737.44;4893402;29;9391;-61
2022/11/11 10:53:39;;;;;;;;;;;;;;;25.24;47.49;95736.97;4877303;29;8700;-62
2022/11/11 10:56:19;;;;;;;;;;;;;;;25.25;46.62;95733.00;4896566;29;9023;-60
2022/11/11 10:59:02;;;;;;;;;;;;;;;25.26;46.83;95726.22;4870010;29;9332;-62
2022/11/11 11:01:55;;;;;;;;;;;;;;;25.26;47.07;95726.22;4870687;29;9761;-61
2022/11/11 11:04:47;;;;;;;;;;;;;;;25.25;48.18;95725.47;4875329;29;7256;-61
2022/11/11 11:07:27;;;;;;;;;;;;;;;25.26;47.89;95721.50;4885775;29;7119;-62
2022/11/11 11:10:05;;;;;;;;;;;;;;;25.25;47.77;95716.47;4856468;29;9095;-61
2022/11/11 11:12:33;;;;;;;;;;;;;;;25.25;48.43;95719.22;4945614;28;8656;-62
2022/11/11 11:15:18;;;;;;;;;;;;;;;25.24;48.07;95720.44;4967128;28;7292;-61
2022/11/11 11:18:21;;;;;;;;;;;;;;;25.24;48.16;95720.44;4924098;29;8301;-61
2022/11/11 11:20:56;;;;;;;;;;;;;;;25.28;48.10;95715.50;4865291;29;9116;-61
2022/11/11 11:23:43;;;;;;;;;;;;;;;25.30;48.22;95716.53;4927875;29;7264;-61
2022/11/11 11:26:13;;;;;;;;;;;;;;;25.33;47.50;95714.84;4912370;29;6946;-61
2022/11/11 11:28:58;;;;;;;;;;;;;;;25.36;48.12;95724.88;4915498;29;7320;-61
2022/11/11 11:31:41;;;;;;;;;;;;;;;25.33;47.74;95712.84;4905098;29;9324;-61
2022/11/11 11:34:07;;;;;;;;;;;;;;;25.32;48.29;95705.03;4912887;29;9070;-61
2022/11/11 11:36:35;;;;;;;;;;;;;;;25.33;48.46;95704.59;4932701;29;10090;-61
2022/11/11 11:39:06;;;;;;;;;;;;;;;25.35;48.03;95706.84;4898913;29;7111;-61
2022/11/11 11:41:40;;;;;;;;;;;;;;;25.34;48.22;95708.06;4914854;29;7297;-61
2022/11/11 11:44:24;;;;;;;;;;;;;;;25.30;47.86;95704.75;4897033;29;9015;-61
2022/11/11 11:46:58;;;;;;;;;;;;;;;25.28;48.50;95698.97;4905502;29;7282;-62
2022/11/11 11:49:57;;;;;;;;;;;;;;;25.34;47.51;95699.81;4911940;29;7281;-61
2022/11/11 11:52:51;;;;;;;;;;;;;;;25.36;48.43;95709.13;4927756;28;9203;-62
2022/11/11 11:55:45;;;;;;;;;;;;;;;25.35;47.88;95701.34;4926287;28;7221;-61
2022/11/11 11:58:35;;;;;;;;;;;;;;;25.36;47.87;95697.34;4985296;28;8997;-61
2022/11/11 12:01:26;;;;;;;;;;;;;;;25.38;47.70;95697.66;5002667;28;8721;-61
2022/11/11 12:04:07;;;;;;;;;;;;;;;25.35;47.67;95690.31;4998870;28;7073;-61
2022/11/11 12:06:41;;;;;;;;;;;;;;;25.35;48.28;95691.09;5012500;28;9259;-61
2022/11/11 12:09:23;;;;;;;;;;;;;;;25.37;47.65;95688.63;5002308;28;7044;-60
2022/11/11 12:12:31;;;;;;;;;;;;;;;25.39;47.21;95688.91;5007811;28;8351;-61
2022/11/11 12:15:09;;;;;;;;;;;;;;;25.39;47.54;95679.88;4957002;28;7242;-61
2022/11/11 12:17:51;;;;;;;;;;;;;;;25.41;47.63;95685.66;4940342;28;8724;-61
2022/11/11 12:20:25;;;;;;;;;;;;;;;25.40;48.09;95681.41;4961306;28;7828;-61
2022/11/11 12:23:03;;;;;;;;;;;;;;;25.44;47.54;95684.75;4961410;28;7128;-61
2022/11/11 12:25:43;;;;;;;;;;;;;;;25.39;47.53;95679.88;4957095;28;6998;-61
2022/11/11 12:28:29;;;;;;;;;;;;;;;25.38;47.53;95683.88;4943212;28;7518;-61
2022/11/11 12:31:13;;;;;;;;;;;;;;;25.39;48.32;95682.63;4950589;28;9393;-61
2022/11/11 12:33:48;;;;;;;;;;;;;;;25.39;47.75;95675.13;4966510;28;7059;-61
2022/11/11 12:36:34;;;;;;;;;;;;;;;25.42;47.73;95678.94;4954634;28;7298;-62
2022/11/11 12:39:18;;;;;;;;;;;;;;;25.44;47.52;95673.72;4945396;28;7416;-61
2022/11/11 12:41:52;;;;;;;;;;;;;;;25.47;47.81;95681.00;4961844;28;7687;-61
2022/11/11 12:44:36;;;;;;;;;;;;;;;25.45;48.00;95683.50;4965450;28;9716;-61
2022/11/11 12:47:21;;;;;;;;;;;;;;;25.45;47.70;95677.97;4944485;28;8087;-61
2022/11/11 12:50:33;;;;;;;;;;;;;;;25.46;48.51;95679.50;4962759;28;7301;-62
2022/11/11 12:53:15;;;;;;;;;;;;;;;25.47;47.30;95680.28;5012050;28;7060;-61
2022/11/11 12:56:04;;;;;;;;;;;;;;;25.46;47.39;95674.00;5009131;28;7123;-62
2022/11/11 12:59:07;;;;;;;;;;;;;;;25.49;46.80;95673.03;5009294;28;7320;-61
2022/11/11 13:02:10;;;;;;;;;;;;;;;25.50;47.75;95677.31;4943483;28;7043;-61
2022/11/11 13:05:26;;;;;;;;;;;;;;;25.49;46.91;95673.03;4929766;28;8873;-62
2022/11/11 13:08:21;;;;;;;;;;;;;;;25.50;47.53;95680.06;4924705;28;7294;-61
2022/11/11 13:11:01;;;;;;;;;;;;;;;25.48;46.98;95676.25;4939615;28;7386;-61
2022/11/11 13:14:02;;;;;;;;;;;;;;;25.48;46.86;95685.28;4937474;28;9626;-61
2022/11/11 13:16:54;;;;;;;;;;;;;;;25.46;47.41;95689.75;4929960;28;7038;-61
2022/11/11 13:19:58;;;;;;;;;;;;;;;25.43;47.12;95683.22;4936899;28;7236;-62
2022/11/11 13:22:25;;;;;;;;;;;;;;;25.44;47.78;95684.75;4951235;28;7273;-61
2022/11/11 13:25:04;;;;;;;;;;;;;;;25.44;47.58;95684.75;4952136;28;7214;-61
2022/11/11 13:28:07;;;;;;;;;;;;;;;25.43;46.99;95689.47;4929068;28;7337;-61
2022/11/11 13:31:22;;;;;;;;;;;;;;;25.46;47.74;95684.25;4944493;28;9292;-62
2022/11/11 13:33:55;;;;;;;;;;;;;;;25.47;47.18;95688.53;4947022;28;7338;-62
2022/11/11 13:36:27;;;;;;;;;;;;;;;25.46;47.40;95682.25;4941919;28;8954;-62
2022/11/11 13:39:03;;;;;;;;;;;;;;;25.46;47.33;95690.53;5007105;28;7350;-62
2022/11/11 13:41:54;;;;;;;;;;;;;;;25.48;47.95;95687.28;5001047;28;7255;-62
2022/11/11 13:44:33;;;;;;;;;;;;;;;25.49;47.02;95689.56;5010777;28;7029;-61
2022/11/11 13:47:16;;;;;;;;;;;;;;;25.51;47.62;95681.59;4998207;28;7448;-62
2022/11/11 13:50:06;;;;;;;;;;;;;;;25.51;47.83;95686.34;5004171;28;9350;-62
2022/11/11 13:53:02;;;;;;;;;;;;;;;25.52;47.55;95677.59;5011434;28;9320;-62
2022/11/11 13:56:02;;;;;;;;;;;;;;;25.50;47.77;95685.56;5003704;28;7091;-62
2022/11/11 13:58:44;;;;;;;;;;;;;;;25.48;47.05;95679.78;4999648;28;8760;-62
2022/11/11 14:01:18;;;;;;;;;;;;;;;25.49;47.11;95684.03;5023514;28;7682;-61
2022/11/11 14:04:22;;;;;;;;;;;;;;;25.50;47.69;95690.31;5000395;28;7235;-62
2022/11/11 14:06:49;;;;;;;;;;;;;;;25.48;47.80;95690.03;4967888;28;7078;-62
2022/11/11 14:09:54;;;;;;;;;;;;;;;25.47;48.03;95681.00;4969207;28;7042;-62
2022/11/11 14:12:32;;;;;;;;;;;;;;;25.50;47.26;95682.06;4946184;28;8273;-62
2022/11/11 14:14:57;;;;;;;;;;;;;;;25.52;47.74;95680.34;4943860;28;7057;-62
2022/11/11 14:17:28;;;;;;;;;;;;;;;25.52;47.35;95683.09;4948575;28;7239;-62
2022/11/11 14:19:54;;;;;;;;;;;;;;;25.52;47.54;95683.09;4950167;28;7283;-62
2022/11/11 14:22:32;;;;;;;;;;;;;;;25.57;47.39;95685.19;4965921;28;8536;-61
2022/11/11 14:25:19;;;;;;;;;;;;;;;25.59;47.53;95684.69;4964806;28;8059;-61
2022/11/11 14:27:45;;;;;;;;;;;;;;;25.58;46.81;95685.94;4949034;28;8934;-61
2022/11/11 14:30:28;;;;;;;;;;;;;;;25.57;47.42;95687.94;4944351;28;7121;-60
2022/11/11 14:33:06;;;;;;;;;;;;;;;25.56;47.69;95683.66;4949664;28;7822;-62
2022/11/11 14:36:04;;;;;;;;;;;;;;;25.54;47.71;95688.88;4942369;28;9321;-61
2022/11/11 14:39:25;;;;;;;;;;;;;;;25.54;46.83;95699.91;5000564;28;7653;-62
2022/11/11 14:43:00;;;;;;;;;;;;;;;25.54;47.42;95686.13;4998443;28;6868;-60
2022/11/11 14:45:36;;;;;;;;;;;;;;;25.53;47.74;95695.66;5022726;28;9412;-60
2022/11/11 14:48:47;;;;;;;;;;;;;;;25.51;47.00;95695.38;5016521;28;8675;-60
2022/11/11 14:51:51;;;;;;;;;;;;;;;25.49;48.12;95695.06;5009789;28;9446;-61
2022/11/11 14:55:02;;;;;;;;;;;;;;;25.49;47.75;95683.31;5013206;28;9692;-61
2022/11/11 14:57:28;;;;;;;;;;;;;;;25.55;47.16;95678.63;5018156;28;8976;-61
2022/11/11 15:00:10;;;;;;;;;;;;;;;25.56;47.41;95683.66;5003460;28;7364;-61
2022/11/11 15:03:13;;;;;;;;;;;;;;;25.53;48.00;95684.63;5008898;28;7169;-61
2022/11/11 15:06:04;;;;;;;;;;;;;;;25.51;48.03;95676.09;5006510;28;7220;-61
2022/11/11 15:08:53;;;;;;;;;;;;;;;25.51;48.05;95675.31;5005220;28;7153;-61
2022/11/11 15:12:03;;;;;;;;;;;;;;;25.54;46.95;95682.59;5003718;28;7034;-61
2022/11/11 15:14:58;;;;;;;;;;;;;;;25.55;47.41;95682.16;5015074;28;7274;-62
2022/11/11 15:17:45;;;;;;;;;;;;;;;25.56;47.67;95678.13;5008897;28;8986;-61
2022/11/11 15:20:38;;;;;;;;;;;;;;;25.58;47.61;95681.16;5005520;28;7045;-61
2022/11/11 15:23:46;;;;;;;;;;;;;;;25.58;46.47;95681.16;5012372;28;7761;-61
2022/11/11 15:26:35;;;;;;;;;;;;;;;25.59;47.14;95681.94;4945493;28;8995;-61
2022/11/11 15:29:42;;;;;;;;;;;;;;;25.59;46.92;95685.44;4938296;28;7104;-61
2022/11/11 15:32:44;;;;;;;;;;;;;;;25.61;46.75;95685.72;4936505;28;7460;-61
2022/11/11 15:35:22;;;;;;;;;;;;;;;25.60;46.51;95681.44;4931362;28;7533;-61
2022/11/11 15:37:57;;;;;;;;;;;;;;;25.60;46.95;95681.44;4936157;28;7367;-61